Terminal Aerodrome Forecast
Issued by NWS Paducah, KY

Home | Current Version | Previous Version | Text Only | Print | Product List | Glossary On
Versions: 1 2 3 4 5 6 7 8 9 10 11 12 13 14 15 16 17 18
788
FTUS43 KPAH 191720
TAFEVV
TAF
KEVV 191720Z 1918/2018 VRB03KT P6SM BKN007
      TEMPO 1918/1920 SCT007
     FM192000 17004KT P6SM SCT010
     FM200000 16003KT P6SM BKN010
     FM200500 00000KT 3SM BR BKN005
      TEMPO 2008/2012 1SM BR
     FM201500 14007KT P6SM BKN020=

USA.gov is the U.S. government's official web portal to all federal, state and local government web resources and services.